sensor_id;sensor_type;location;lat;lon;timestamp;P1;durP1;ratioP1;P2;durP2;ratioP2
45940;SDS011;31858;46.008;8.978;2023-06-05T00:00:24;7.18;;;4.35;;
45940;SDS011;31858;46.008;8.978;2023-06-05T00:10:26;7.97;;;6.43;;
45940;SDS011;31858;46.008;8.978;2023-06-05T00:20:29;3.08;;;2.75;;
45940;SDS011;31858;46.008;8.978;2023-06-05T00:30:31;2.50;;;1.85;;
45940;SDS011;31858;46.008;8.978;2023-06-05T00:40:34;1.55;;;1.40;;
45940;SDS011;31858;46.008;8.978;2023-06-05T00:50:35;4.38;;;1.48;;
45940;SDS011;31858;46.008;8.978;2023-06-05T01:00:38;4.60;;;1.50;;
45940;SDS011;31858;46.008;8.978;2023-06-05T01:10:40;3.53;;;1.50;;
45940;SDS011;31858;46.008;8.978;2023-06-05T01:20:43;2.30;;;2.10;;
45940;SDS011;31858;46.008;8.978;2023-06-05T01:30:48;4.43;;;2.58;;
45940;SDS011;31858;46.008;8.978;2023-06-05T01:41:00;3.10;;;2.75;;
45940;SDS011;31858;46.008;8.978;2023-06-05T01:51:05;3.50;;;2.63;;
45940;SDS011;31858;46.008;8.978;2023-06-05T02:01:07;7.22;;;4.10;;
45940;SDS011;31858;46.008;8.978;2023-06-05T02:11:10;4.47;;;3.72;;
45940;SDS011;31858;46.008;8.978;2023-06-05T02:21:12;3.65;;;1.90;;
45940;SDS011;31858;46.008;8.978;2023-06-05T02:31:16;2.85;;;1.80;;
45940;SDS011;31858;46.008;8.978;2023-06-05T02:41:17;1.95;;;1.60;;
45940;SDS011;31858;46.008;8.978;2023-06-05T02:51:22;2.10;;;2.00;;
45940;SDS011;31858;46.008;8.978;2023-06-05T03:01:24;4.28;;;2.15;;
45940;SDS011;31858;46.008;8.978;2023-06-05T03:11:35;3.13;;;1.50;;
45940;SDS011;31858;46.008;8.978;2023-06-05T03:21:37;2.83;;;1.40;;
45940;SDS011;31858;46.008;8.978;2023-06-05T03:31:42;1.63;;;1.38;;
45940;SDS011;31858;46.008;8.978;2023-06-05T03:41:44;1.55;;;1.33;;
45940;SDS011;31858;46.008;8.978;2023-06-05T03:51:47;1.27;;;1.17;;
45940;SDS011;31858;46.008;8.978;2023-06-05T04:01:48;4.65;;;1.80;;
45940;SDS011;31858;46.008;8.978;2023-06-05T04:11:51;1.70;;;1.60;;
45940;SDS011;31858;46.008;8.978;2023-06-05T04:21:53;3.30;;;1.50;;
45940;SDS011;31858;46.008;8.978;2023-06-05T04:31:57;3.40;;;1.63;;
45940;SDS011;31858;46.008;8.978;2023-06-05T04:41:58;2.15;;;1.75;;
45940;SDS011;31858;46.008;8.978;2023-06-05T04:52:02;1.50;;;1.40;;
45940;SDS011;31858;46.008;8.978;2023-06-05T05:02:04;1.58;;;1.48;;
45940;SDS011;31858;46.008;8.978;2023-06-05T05:12:07;1.50;;;1.40;;
45940;SDS011;31858;46.008;8.978;2023-06-05T05:22:09;2.55;;;1.40;;
45940;SDS011;31858;46.008;8.978;2023-06-05T05:32:12;1.50;;;1.40;;
45940;SDS011;31858;46.008;8.978;2023-06-05T05:42:14;3.42;;;1.35;;
45940;SDS011;31858;46.008;8.978;2023-06-05T05:52:18;3.72;;;1.38;;
45940;SDS011;31858;46.008;8.978;2023-06-05T06:02:20;5.47;;;1.80;;
45940;SDS011;31858;46.008;8.978;2023-06-05T06:12:23;3.00;;;1.30;;
45940;SDS011;31858;46.008;8.978;2023-06-05T06:22:25;7.45;;;4.03;;
45940;SDS011;31858;46.008;8.978;2023-06-05T06:32:28;5.85;;;4.20;;
45940;SDS011;31858;46.008;8.978;2023-06-05T06:42:30;3.33;;;3.00;;
45940;SDS011;31858;46.008;8.978;2023-06-05T06:52:33;2.78;;;1.23;;
45940;SDS011;31858;46.008;8.978;2023-06-05T07:02:34;1.50;;;1.40;;
45940;SDS011;31858;46.008;8.978;2023-06-05T07:12:37;3.25;;;1.98;;
45940;SDS011;31858;46.008;8.978;2023-06-05T07:22:41;1.52;;;1.42;;
45940;SDS011;31858;46.008;8.978;2023-06-05T07:32:46;1.40;;;1.30;;
45940;SDS011;31858;46.008;8.978;2023-06-05T07:42:47;1.85;;;1.67;;
45940;SDS011;31858;46.008;8.978;2023-06-05T07:52:50;2.38;;;2.17;;
45940;SDS011;31858;46.008;8.978;2023-06-05T08:02:52;4.60;;;2.65;;
45940;SDS011;31858;46.008;8.978;2023-06-05T08:12:55;3.63;;;2.92;;
45940;SDS011;31858;46.008;8.978;2023-06-05T08:22:56;5.72;;;4.05;;
45940;SDS011;31858;46.008;8.978;2023-06-05T08:32:59;4.50;;;3.92;;
45940;SDS011;31858;46.008;8.978;2023-06-05T08:43:01;5.80;;;3.70;;
45940;SDS011;31858;46.008;8.978;2023-06-05T08:53:05;5.93;;;4.18;;
45940;SDS011;31858;46.008;8.978;2023-06-05T09:03:10;4.88;;;3.42;;
45940;SDS011;31858;46.008;8.978;2023-06-05T09:13:15;6.13;;;4.03;;
45940;SDS011;31858;46.008;8.978;2023-06-05T09:23:20;3.53;;;3.05;;
45940;SDS011;31858;46.008;8.978;2023-06-05T09:33:26;4.57;;;3.45;;
45940;SDS011;31858;46.008;8.978;2023-06-05T09:43:28;4.07;;;3.00;;
45940;SDS011;31858;46.008;8.978;2023-06-05T09:53:31;3.70;;;3.08;;
45940;SDS011;31858;46.008;8.978;2023-06-05T10:03:34;4.05;;;2.78;;
45940;SDS011;31858;46.008;8.978;2023-06-05T10:13:40;4.20;;;3.80;;
45940;SDS011;31858;46.008;8.978;2023-06-05T10:23:42;3.85;;;3.55;;
45940;SDS011;31858;46.008;8.978;2023-06-05T10:33:51;6.63;;;3.70;;
45940;SDS011;31858;46.008;8.978;2023-06-05T10:44:07;7.15;;;4.00;;
45940;SDS011;31858;46.008;8.978;2023-06-05T10:54:11;4.38;;;3.90;;
45940;SDS011;31858;46.008;8.978;2023-06-05T11:04:16;5.53;;;3.97;;
45940;SDS011;31858;46.008;8.978;2023-06-05T11:14:20;5.75;;;3.95;;
45940;SDS011;31858;46.008;8.978;2023-06-05T11:24:21;5.28;;;3.67;;
45940;SDS011;31858;46.008;8.978;2023-06-05T11:34:24;10.95;;;4.45;;
45940;SDS011;31858;46.008;8.978;2023-06-05T11:44:31;5.85;;;4.00;;
45940;SDS011;31858;46.008;8.978;2023-06-05T11:54:37;4.50;;;4.10;;
45940;SDS011;31858;46.008;8.978;2023-06-05T12:04:45;4.40;;;3.92;;
45940;SDS011;31858;46.008;8.978;2023-06-05T12:14:48;5.00;;;3.97;;
45940;SDS011;31858;46.008;8.978;2023-06-05T12:24:50;4.50;;;4.10;;
45940;SDS011;31858;46.008;8.978;2023-06-05T12:34:53;9.25;;;6.10;;
45940;SDS011;31858;46.008;8.978;2023-06-05T12:44:55;4.75;;;4.22;;
45940;SDS011;31858;46.008;8.978;2023-06-05T12:54:58;6.72;;;5.43;;
45940;SDS011;31858;46.008;8.978;2023-06-05T13:05:00;7.97;;;6.70;;
45940;SDS011;31858;46.008;8.978;2023-06-05T13:15:03;6.63;;;5.80;;
45940;SDS011;31858;46.008;8.978;2023-06-05T13:25:08;6.28;;;5.68;;
45940;SDS011;31858;46.008;8.978;2023-06-05T13:35:11;8.93;;;6.22;;
45940;SDS011;31858;46.008;8.978;2023-06-05T13:45:13;10.23;;;7.32;;
45940;SDS011;31858;46.008;8.978;2023-06-05T13:55:16;9.68;;;8.68;;
45940;SDS011;31858;46.008;8.978;2023-06-05T14:05:18;9.13;;;7.20;;
45940;SDS011;31858;46.008;8.978;2023-06-05T14:15:21;7.93;;;7.13;;
45940;SDS011;31858;46.008;8.978;2023-06-05T14:25:24;8.82;;;5.95;;
45940;SDS011;31858;46.008;8.978;2023-06-05T14:35:27;8.80;;;6.78;;
45940;SDS011;31858;46.008;8.978;2023-06-05T14:45:29;7.30;;;6.60;;
45940;SDS011;31858;46.008;8.978;2023-06-05T14:55:32;9.52;;;7.38;;
45940;SDS011;31858;46.008;8.978;2023-06-05T15:05:34;7.35;;;6.65;;
45940;SDS011;31858;46.008;8.978;2023-06-05T15:15:37;8.55;;;7.57;;
45940;SDS011;31858;46.008;8.978;2023-06-05T15:25:38;8.05;;;6.97;;
45940;SDS011;31858;46.008;8.978;2023-06-05T15:35:41;8.40;;;7.10;;
45940;SDS011;31858;46.008;8.978;2023-06-05T15:45:45;6.30;;;4.60;;
45940;SDS011;31858;46.008;8.978;2023-06-05T15:55:48;9.27;;;8.38;;
45940;SDS011;31858;46.008;8.978;2023-06-05T16:05:49;6.22;;;5.63;;
45940;SDS011;31858;46.008;8.978;2023-06-05T16:15:52;5.03;;;4.53;;
45940;SDS011;31858;46.008;8.978;2023-06-05T16:25:54;6.50;;;5.80;;
45940;SDS011;31858;46.008;8.978;2023-06-05T16:35:57;7.32;;;6.00;;
45940;SDS011;31858;46.008;8.978;2023-06-05T16:45:58;5.70;;;5.10;;
45940;SDS011;31858;46.008;8.978;2023-06-05T16:56:01;5.60;;;4.15;;
45940;SDS011;31858;46.008;8.978;2023-06-05T17:06:03;5.65;;;4.88;;
45940;SDS011;31858;46.008;8.978;2023-06-05T17:16:07;6.20;;;5.53;;
45940;SDS011;31858;46.008;8.978;2023-06-05T17:26:08;6.70;;;6.00;;
45940;SDS011;31858;46.008;8.978;2023-06-05T17:36:11;5.63;;;5.13;;
45940;SDS011;31858;46.008;8.978;2023-06-05T17:46:13;6.75;;;5.05;;
45940;SDS011;31858;46.008;8.978;2023-06-05T17:56:16;4.93;;;4.22;;
45940;SDS011;31858;46.008;8.978;2023-06-05T18:06:18;7.22;;;6.13;;
45940;SDS011;31858;46.008;8.978;2023-06-05T18:16:21;6.10;;;4.97;;
45940;SDS011;31858;46.008;8.978;2023-06-05T18:26:23;5.07;;;4.10;;
45940;SDS011;31858;46.008;8.978;2023-06-05T18:36:27;4.55;;;3.90;;
45940;SDS011;31858;46.008;8.978;2023-06-05T18:46:28;5.05;;;4.22;;
45940;SDS011;31858;46.008;8.978;2023-06-05T18:56:31;10.75;;;5.65;;
45940;SDS011;31858;46.008;8.978;2023-06-05T19:06:33;12.07;;;8.63;;
45940;SDS011;31858;46.008;8.978;2023-06-05T19:16:36;15.93;;;9.18;;
45940;SDS011;31858;46.008;8.978;2023-06-05T19:26:37;8.18;;;7.38;;
45940;SDS011;31858;46.008;8.978;2023-06-05T19:36:40;6.25;;;5.65;;
45940;SDS011;31858;46.008;8.978;2023-06-05T19:46:42;4.32;;;3.60;;
45940;SDS011;31858;46.008;8.978;2023-06-05T19:56:45;4.95;;;3.03;;
45940;SDS011;31858;46.008;8.978;2023-06-05T20:06:46;6.30;;;3.67;;
45940;SDS011;31858;46.008;8.978;2023-06-05T20:16:49;4.35;;;3.90;;
45940;SDS011;31858;46.008;8.978;2023-06-05T20:26:51;7.90;;;3.90;;
45940;SDS011;31858;46.008;8.978;2023-06-05T20:36:54;5.82;;;4.80;;
45940;SDS011;31858;46.008;8.978;2023-06-05T20:46:56;7.50;;;4.75;;
45940;SDS011;31858;46.008;8.978;2023-06-05T20:57:08;9.93;;;7.10;;
45940;SDS011;31858;46.008;8.978;2023-06-05T21:07:10;13.45;;;12.05;;
45940;SDS011;31858;46.008;8.978;2023-06-05T21:17:14;13.95;;;11.85;;
45940;SDS011;31858;46.008;8.978;2023-06-05T21:27:15;10.98;;;9.65;;
45940;SDS011;31858;46.008;8.978;2023-06-05T21:37:18;14.45;;;12.98;;
45940;SDS011;31858;46.008;8.978;2023-06-05T21:47:20;20.23;;;14.02;;
45940;SDS011;31858;46.008;8.978;2023-06-05T21:57:23;17.35;;;15.50;;
45940;SDS011;31858;46.008;8.978;2023-06-05T22:07:24;19.58;;;16.15;;
45940;SDS011;31858;46.008;8.978;2023-06-05T22:17:34;15.65;;;11.32;;
45940;SDS011;31858;46.008;8.978;2023-06-05T22:27:36;13.98;;;11.82;;
45940;SDS011;31858;46.008;8.978;2023-06-05T22:37:40;18.80;;;15.20;;
45940;SDS011;31858;46.008;8.978;2023-06-05T22:47:43;26.45;;;16.95;;
45940;SDS011;31858;46.008;8.978;2023-06-05T22:57:47;19.35;;;16.00;;
45940;SDS011;31858;46.008;8.978;2023-06-05T23:07:48;17.52;;;14.98;;
45940;SDS011;31858;46.008;8.978;2023-06-05T23:17:51;15.73;;;12.23;;
45940;SDS011;31858;46.008;8.978;2023-06-05T23:27:53;14.30;;;11.68;;
45940;SDS011;31858;46.008;8.978;2023-06-05T23:37:56;17.25;;;15.05;;
45940;SDS011;31858;46.008;8.978;2023-06-05T23:47:57;19.40;;;17.38;;
45940;SDS011;31858;46.008;8.978;2023-06-05T23:58:01;19.10;;;16.92;;
